La Grande Lulu — LGLULU — position and weather

sailwx.info

Track history (hours):
 
Tides and Currents Weather Stations Pressure Air Temp Water Temp Dewpoint Dewpoint Depression Visibility Wind Speed Wind Dir Waves Ship Positions

La Grande Lulu

Last reported at 2017-Oct-09 12:09 UTC. Time now 2017-Nov-20 02:11 UTC.
Position N 47°28' W 003°08'.
Warning: this ship's position is 41 days out of date.

Length 12 m.

Type: Sailing vessel. MMSI: 227096360.

Date/timePositionNaut miles runAvg speedWind from/ knotsBaromVisibWave heightAir tempDewpointWater temp
2017-Oct-09 12:09N 47°28' W 003°08'1 5.5
2017-Oct-09 12:00N 47°29' W 003°09'2 5.1
2017-Oct-09 11:30N 47°30' W 003°12'3 5.2
2017-Oct-09 11:00N 47°32' W 003°15'2 4.7
2017-Oct-09 10:30N 47°34' W 003°17'3 5.1
2017-Oct-09 10:00N 47°36' W 003°20'2 4.8
2017-Oct-09 09:30N 47°37' W 003°23'3 5.1
2017-Oct-09 09:00N 47°39' W 003°26'1 0.0
2017-Oct-07 14:01N 47°39' W 003°27'0 1.8
2017-Oct-07 14:00N 47°39' W 003°27'1 2.1
2017-Oct-07 13:30N 47°39' W 003°25'2 3.8
2017-Oct-07 13:00N 47°38' W 003°23'3 5.6
2017-Oct-07 12:30N 47°36' W 003°20'3 5.8
2017-Oct-07 12:00N 47°34' W 003°17'3 6.3
2017-Oct-07 11:30N 47°32' W 003°14'3 6.1
2017-Oct-07 10:59N 47°29' W 003°11'  
2017-Oct-01 11:11N 47°24' W 002°37'1 6.1
2017-Oct-01 10:58N 47°25' W 002°39'3 6.1
2017-Oct-01 10:30N 47°26' W 002°43'3 6.3
2017-Oct-01 09:59N 47°28' W 002°47'3 6.6
2017-Oct-01 09:29N 47°29' W 002°52'3 5.7
2017-Oct-01 09:00N 47°31' W 002°54'  
Track history (hours):
 
Tides and Currents Weather Stations Pressure Air Temp Water Temp Dewpoint Dewpoint Depression Visibility Wind Speed Wind Dir Waves Ship Positions

La Grande Lulu

Last reported at 2017-Oct-09 12:09 UTC. Time now 2017-Nov-20 02:11 UTC.
Position N 47°28' W 003°08'.
Warning: this ship's position is 41 days out of date.

Length 12 m.

Type: Sailing vessel. MMSI: 227096360.

Date/timePositionNaut miles runAvg speedWind from/ knotsBaromVisibWave heightAir tempDewpointWater temp
2017-Oct-09 12:09N 47°28' W 003°08'1 5.5
2017-Oct-09 12:00N 47°29' W 003°09'2 5.1
2017-Oct-09 11:30N 47°30' W 003°12'3 5.2
2017-Oct-09 11:00N 47°32' W 003°15'2 4.7
2017-Oct-09 10:30N 47°34' W 003°17'3 5.1
2017-Oct-09 10:00N 47°36' W 003°20'2 4.8
2017-Oct-09 09:30N 47°37' W 003°23'3 5.1
2017-Oct-09 09:00N 47°39' W 003°26'1 0.0
2017-Oct-07 14:01N 47°39' W 003°27'0 1.8
2017-Oct-07 14:00N 47°39' W 003°27'1 2.1
2017-Oct-07 13:30N 47°39' W 003°25'2 3.8
2017-Oct-07 13:00N 47°38' W 003°23'3 5.6
2017-Oct-07 12:30N 47°36' W 003°20'3 5.8
2017-Oct-07 12:00N 47°34' W 003°17'3 6.3
2017-Oct-07 11:30N 47°32' W 003°14'3 6.1
2017-Oct-07 10:59N 47°29' W 003°11'  
2017-Oct-01 11:11N 47°24' W 002°37'1 6.1
2017-Oct-01 10:58N 47°25' W 002°39'3 6.1
2017-Oct-01 10:30N 47°26' W 002°43'3 6.3
2017-Oct-01 09:59N 47°28' W 002°47'3 6.6
2017-Oct-01 09:29N 47°29' W 002°52'3 5.7
2017-Oct-01 09:00N 47°31' W 002°54'  

Dump ship's entire track history